Time;durP1;ratioP1;P1;durP2;ratioP2;P2;SDS_P1;SDS_P2;PMS_P1;PMS_P2;Temp;Humidity;BMP_temperature;BMP_pressure;BME280_temperature;BME280_humidity;BME280_pressure;Samples;Min_cycle;Max_cycle;Signal;HPM_P1;HPM_P2
2022/12/17 13:06:36;;;;;;;3.00;2.30;;;;;;;;;;5036434;28;20083;-78
2022/12/17 13:09:25;;;;;;;4.30;3.10;;;;;;;;;;5026995;28;20065;-81
2022/12/17 13:12:03;;;;;;;5.50;3.25;;;;;;;;;;5008448;28;20037;-79
2022/12/17 13:14:35;;;;;;;4.00;3.17;;;;;;;;;;5020307;28;20382;-80
2022/12/17 13:17:16;;;;;;;4.30;3.25;;;;;;;;;;5018396;28;20079;-79
2022/12/17 13:19:57;;;;;;;4.63;3.33;;;;;;;;;;5018896;28;20033;-81
2022/12/17 13:22:23;;;;;;;6.63;4.35;;;;;;;;;;5018481;28;20131;-79
2022/12/17 13:24:50;;;;;;;7.78;4.80;;;;;;;;;;5036171;28;20100;-80
2022/12/17 13:27:34;;;;;;;5.85;3.70;;;;;;;;;;5002347;28;20021;-79
2022/12/17 13:30:30;;;;;;;5.25;3.60;;;;;;;;;;5036044;28;20026;-81
2022/12/17 13:33:21;;;;;;;5.38;3.38;;;;;;;;;;5018270;28;20032;-80
2022/12/17 13:36:08;;;;;;;6.63;3.78;;;;;;;;;;5018696;28;20051;-79
2022/12/17 13:38:48;;;;;;;5.30;3.53;;;;;;;;;;5019495;28;20458;-80
2022/12/17 13:41:17;;;;;;;7.22;4.20;;;;;;;;;;5038488;28;20458;-80
2022/12/17 13:43:53;;;;;;;6.70;4.20;;;;;;;;;;5020445;28;20029;-81
2022/12/17 13:46:19;;;;;;;7.22;4.47;;;;;;;;;;5002164;28;20029;-80
2022/12/17 13:48:57;;;;;;;6.88;4.30;;;;;;;;;;5035673;28;20060;-80
2022/12/17 13:51:25;;;;;;;8.07;4.75;;;;;;;;;;5018782;28;20040;-79
2022/12/17 13:53:55;;;;;;;6.90;4.45;;;;;;;;;;5001988;28;20470;-80
2022/12/17 13:56:25;;;;;;;5.95;4.55;;;;;;;;;;5018437;28;20056;-80
2022/12/17 13:58:51;;;;;;;8.77;4.53;;;;;;;;;;5035806;28;20033;-79
2022/12/17 14:01:17;;;;;;;8.13;5.03;;;;;;;;;;5017782;28;20033;-78
2022/12/17 14:03:47;;;;;;;8.57;4.90;;;;;;;;;;5034340;28;20036;-80
2022/12/17 14:06:13;;;;;;;27.30;14.95;;;;;;;;;;5018522;28;20532;-80
2022/12/17 14:08:38;;;;;;;10.07;6.35;;;;;;;;;;5018014;28;20037;-80
2022/12/17 14:13:47;;;;;;;14.60;8.82;;;;;;;;;;5035314;28;20092;-79
2022/12/17 14:16:17;;;;;;;30.85;20.75;;;;;;;;;;5033750;28;20021;-78
2022/12/17 14:18:49;;;;;;;28.92;19.55;;;;;;;;;;4984861;28;20037;-79
2022/12/17 14:21:14;;;;;;;21.40;12.77;;;;;;;;;;5002019;28;20465;-78
2022/12/17 14:23:40;;;;;;;29.45;17.55;;;;;;;;;;5001302;28;20026;-77
2022/12/17 14:26:09;;;;;;;35.38;22.88;;;;;;;;;;5001280;28;20026;-79
2022/12/17 14:28:36;;;;;;;15.00;9.38;;;;;;;;;;5001455;28;20029;-79
2022/12/17 14:31:29;;;;;;;12.57;8.60;;;;;;;;;;5000473;28;20115;-77
2022/12/17 14:34:07;;;;;;;11.50;7.53;;;;;;;;;;5021016;28;20474;-79
2022/12/17 14:36:34;;;;;;;15.82;9.82;;;;;;;;;;5017018;28;20052;-79
2022/12/17 14:39:01;;;;;;;23.98;13.07;;;;;;;;;;5017212;28;20120;-78
2022/12/17 14:44:22;;;;;;;22.23;10.60;;;;;;;;;;5005647;28;20033;-79
2022/12/17 14:46:48;;;;;;;19.67;11.85;;;;;;;;;;5033519;28;20069;-80
2022/12/17 14:49:20;;;;;;;24.98;12.95;;;;;;;;;;5000934;28;20081;-78
2022/12/17 14:51:46;;;;;;;21.50;11.60;;;;;;;;;;5001053;28;20029;-78
2022/12/17 14:54:28;;;;;;;42.40;20.10;;;;;;;;;;5035128;28;20088;-79
2022/12/17 14:56:54;;;;;;;27.83;12.75;;;;;;;;;;5034665;28;20033;-80
2022/12/17 14:59:23;;;;;;;34.42;17.73;;;;;;;;;;5016965;28;20033;-80
2022/12/17 15:01:49;;;;;;;30.17;16.33;;;;;;;;;;5034549;28;20040;-80
2022/12/17 15:04:15;;;;;;;28.35;14.45;;;;;;;;;;4999794;28;20028;-80
2022/12/17 15:06:40;;;;;;;27.08;14.50;;;;;;;;;;5016829;28;20041;-78
2022/12/17 15:09:06;;;;;;;29.15;15.88;;;;;;;;;;5034532;28;20429;-80
2022/12/17 15:11:31;;;;;;;27.35;15.48;;;;;;;;;;5033371;28;20365;-78
2022/12/17 15:13:57;;;;;;;27.15;14.75;;;;;;;;;;5016680;28;20442;-81
2022/12/17 15:16:23;;;;;;;25.48;14.70;;;;;;;;;;5000478;28;20026;-80
2022/12/17 15:18:48;;;;;;;35.35;20.98;;;;;;;;;;5016609;28;20365;-79
2022/12/17 15:21:13;;;;;;;35.25;20.70;;;;;;;;;;5034607;28;20043;-80
2022/12/17 15:23:40;;;;;;;28.63;16.73;;;;;;;;;;5016430;28;20209;-79
2022/12/17 15:26:05;;;;;;;34.58;16.30;;;;;;;;;;5000187;28;20029;-79
2022/12/17 15:28:31;;;;;;;26.75;13.88;;;;;;;;;;5000077;28;20331;-79
2022/12/17 15:30:56;;;;;;;28.92;14.88;;;;;;;;;;5034243;28;20037;-79
2022/12/17 15:33:22;;;;;;;28.70;16.60;;;;;;;;;;5000408;28;20036;-78
2022/12/17 15:35:47;;;;;;;28.17;15.68;;;;;;;;;;5016620;28;20033;-79
2022/12/17 15:38:12;;;;;;;29.52;14.57;;;;;;;;;;5016463;28;20116;-78
2022/12/17 15:40:38;;;;;;;28.50;16.63;;;;;;;;;;5034115;28;20421;-80
2022/12/17 15:43:10;;;;;;;27.45;15.88;;;;;;;;;;5033621;28;20021;-80
2022/12/17 15:45:41;;;;;;;30.65;15.68;;;;;;;;;;5016281;28;20033;-78
2022/12/17 15:48:08;;;;;;;33.17;16.27;;;;;;;;;;5034172;28;20041;-80
2022/12/17 15:50:33;;;;;;;30.52;16.05;;;;;;;;;;5016384;28;20033;-77
2022/12/17 15:52:59;;;;;;;52.42;27.90;;;;;;;;;;5033764;28;20357;-79
2022/12/17 15:55:24;;;;;;;39.45;19.45;;;;;;;;;;5033833;28;20037;-80
2022/12/17 15:57:49;;;;;;;41.17;19.95;;;;;;;;;;5033734;28;20033;-79
2022/12/17 16:00:15;;;;;;;43.25;25.40;;;;;;;;;;5033990;28;20450;-80
2022/12/17 16:02:41;;;;;;;36.83;19.23;;;;;;;;;;5033990;28;20482;-78
2022/12/17 16:05:06;;;;;;;39.35;19.85;;;;;;;;;;4999903;28;20029;-79
2022/12/17 16:07:32;;;;;;;44.22;21.63;;;;;;;;;;5033681;28;20127;-80
2022/12/17 16:09:57;;;;;;;39.85;19.65;;;;;;;;;;5016251;28;20046;-78
2022/12/17 16:12:23;;;;;;;34.47;19.33;;;;;;;;;;5033633;28;20923;-78
2022/12/17 16:14:48;;;;;;;39.58;19.65;;;;;;;;;;5017213;28;20452;-79
2022/12/17 16:17:13;;;;;;;46.42;23.90;;;;;;;;;;5037967;28;20474;-78
2022/12/17 16:19:39;;;;;;;39.47;20.15;;;;;;;;;;5037329;28;20026;-78
2022/12/17 16:22:04;;;;;;;36.75;20.08;;;;;;;;;;5020201;28;20030;-79
2022/12/17 16:24:30;;;;;;;39.80;19.52;;;;;;;;;;5036432;28;20059;-78
2022/12/17 16:26:55;;;;;;;43.95;20.92;;;;;;;;;;5019295;28;20033;-78
2022/12/17 16:29:21;;;;;;;41.28;20.10;;;;;;;;;;5037205;28;20033;-78
2022/12/17 16:31:48;;;;;;;46.17;21.42;;;;;;;;;;5035976;28;20029;-80
2022/12/17 16:34:13;;;;;;;49.45;23.15;;;;;;;;;;5019682;28;20118;-78
2022/12/17 16:36:39;;;;;;;48.45;22.73;;;;;;;;;;5037061;28;20064;-79
2022/12/17 16:39:04;;;;;;;52.40;27.63;;;;;;;;;;5037239;28;20041;-79
2022/12/17 16:41:30;;;;;;;64.47;35.45;;;;;;;;;;5002659;28;20045;-79
2022/12/17 16:43:55;;;;;;;59.85;31.90;;;;;;;;;;5003276;28;20037;-80
2022/12/17 16:46:28;;;;;;;46.88;23.20;;;;;;;;;;5037290;28;20033;-79
2022/12/17 16:48:54;;;;;;;55.10;25.55;;;;;;;;;;5003739;28;20025;-80
2022/12/17 16:51:20;;;;;;;49.70;25.02;;;;;;;;;;5037171;28;20044;-80
2022/12/17 16:53:46;;;;;;;50.78;23.98;;;;;;;;;;5019603;28;20449;-81
2022/12/17 16:56:15;;;;;;;59.30;28.98;;;;;;;;;;5021190;28;20041;-79
2022/12/17 16:58:41;;;;;;;44.33;21.57;;;;;;;;;;5019207;28;20033;-79
2022/12/17 17:01:06;;;;;;;50.45;22.92;;;;;;;;;;5002686;28;20398;-78
2022/12/17 17:03:32;;;;;;;47.53;23.85;;;;;;;;;;5036681;28;20034;-79
2022/12/17 17:06:02;;;;;;;47.97;23.23;;;;;;;;;;5036531;28;20079;-79
2022/12/17 17:08:28;;;;;;;38.65;18.65;;;;;;;;;;5036367;28;20500;-80
2022/12/17 17:10:53;;;;;;;51.63;22.70;;;;;;;;;;5003337;28;20026;-79
2022/12/17 17:13:18;;;;;;;108.90;53.17;;;;;;;;;;5036452;28;20044;-79
2022/12/17 17:15:44;;;;;;;57.38;26.75;;;;;;;;;;5019012;28;20034;-78
2022/12/17 17:18:09;;;;;;;70.93;36.72;;;;;;;;;;5036227;28;20056;-80
2022/12/17 17:20:35;;;;;;;72.03;36.22;;;;;;;;;;5036498;28;20172;-79
2022/12/17 17:23:01;;;;;;;61.83;26.15;;;;;;;;;;5018510;28;20075;-79
2022/12/17 17:25:27;;;;;;;58.83;25.58;;;;;;;;;;5036507;28;20033;-79
2022/12/17 17:27:52;;;;;;;59.90;25.45;;;;;;;;;;5017846;28;20405;-80
2022/12/17 17:30:18;;;;;;;55.38;25.77;;;;;;;;;;5036104;28;20019;-80
2022/12/17 17:32:43;;;;;;;60.92;25.98;;;;;;;;;;5036276;28;20033;-81
2022/12/17 17:35:09;;;;;;;55.20;26.10;;;;;;;;;;5018685;28;20080;-79
2022/12/17 17:37:34;;;;;;;58.10;25.45;;;;;;;;;;5018349;28;20032;-77
2022/12/17 17:39:59;;;;;;;61.00;26.27;;;;;;;;;;5036218;28;20037;-79
2022/12/17 17:42:25;;;;;;;65.65;28.58;;;;;;;;;;5036110;28;20048;-80
2022/12/17 17:44:50;;;;;;;58.25;25.98;;;;;;;;;;5018150;28;20033;-80
2022/12/17 17:47:16;;;;;;;59.85;26.00;;;;;;;;;;5036175;28;20049;-80
2022/12/17 17:49:41;;;;;;;59.05;26.13;;;;;;;;;;5018350;28;20041;-79
2022/12/17 17:52:07;;;;;;;67.97;27.05;;;;;;;;;;5018303;28;20041;-80
2022/12/17 17:54:32;;;;;;;63.05;26.88;;;;;;;;;;5035958;28;20451;-79
2022/12/17 17:56:58;;;;;;;62.78;27.27;;;;;;;;;;5018281;28;20034;-78
2022/12/17 17:59:23;;;;;;;105.00;42.60;;;;;;;;;;5035443;28;20030;-78
2022/12/17 18:01:49;;;;;;;87.18;34.80;;;;;;;;;;5001568;28;20032;-78
2022/12/17 18:04:16;;;;;;;103.57;40.78;;;;;;;;;;5017727;28;20028;-78
2022/12/17 18:06:42;;;;;;;62.08;25.27;;;;;;;;;;5001274;28;20167;-78
2022/12/17 18:09:08;;;;;;;62.97;27.42;;;;;;;;;;5035743;28;20080;-79
2022/12/17 18:11:34;;;;;;;70.95;31.65;;;;;;;;;;5001725;28;20062;-79
2022/12/17 18:14:00;;;;;;;70.88;29.63;;;;;;;;;;5017601;28;20026;-77
2022/12/17 18:16:26;;;;;;;71.22;30.63;;;;;;;;;;5035585;28;20343;-79
2022/12/17 18:18:53;;;;;;;65.05;28.65;;;;;;;;;;5035460;28;20442;-78
2022/12/17 18:21:19;;;;;;;71.45;34.47;;;;;;;;;;5001346;28;20037;-78
2022/12/17 18:23:44;;;;;;;67.38;28.35;;;;;;;;;;5001414;28;20124;-77
2022/12/17 18:26:12;;;;;;;66.95;29.27;;;;;;;;;;5033913;28;20032;-78
2022/12/17 18:28:38;;;;;;;70.28;29.52;;;;;;;;;;5001203;28;20076;-79
2022/12/17 18:31:09;;;;;;;65.50;28.45;;;;;;;;;;5017466;28;20061;-79
2022/12/17 18:33:36;;;;;;;90.82;38.63;;;;;;;;;;5034877;28;20437;-79
2022/12/17 18:36:01;;;;;;;77.47;34.70;;;;;;;;;;5034905;28;20347;-79
2022/12/17 18:38:27;;;;;;;93.38;42.20;;;;;;;;;;5017816;28;20042;-78
2022/12/17 18:40:53;;;;;;;85.95;38.97;;;;;;;;;;5037880;28;20127;-80
2022/12/17 18:43:24;;;;;;;85.75;40.08;;;;;;;;;;5007974;28;20043;-80
2022/12/17 18:45:50;;;;;;;73.97;32.40;;;;;;;;;;5022753;28;20037;-78
2022/12/17 18:48:16;;;;;;;80.68;36.72;;;;;;;;;;5019069;28;20034;-80
2022/12/17 18:50:41;;;;;;;87.43;40.65;;;;;;;;;;5036944;28;20026;-80
2022/12/17 18:53:07;;;;;;;81.93;38.75;;;;;;;;;;5019179;28;20128;-79
2022/12/17 18:55:32;;;;;;;81.93;34.80;;;;;;;;;;5036259;28;20030;-79
2022/12/17 18:58:00;;;;;;;72.03;33.95;;;;;;;;;;5017269;28;20041;-81
2022/12/17 19:00:25;;;;;;;77.10;33.22;;;;;;;;;;5001166;28;20473;-78
2022/12/17 19:02:50;;;;;;;70.82;31.73;;;;;;;;;;5016950;28;20033;-80
2022/12/17 19:05:16;;;;;;;77.30;32.83;;;;;;;;;;5034379;28;20060;-78
2022/12/17 19:07:41;;;;;;;83.72;35.40;;;;;;;;;;5034081;28;20474;-79
2022/12/17 19:10:07;;;;;;;82.80;35.83;;;;;;;;;;5000750;28;20038;-79
2022/12/17 19:12:33;;;;;;;76.03;34.58;;;;;;;;;;5017282;28;20036;-79
2022/12/17 19:14:58;;;;;;;83.30;36.33;;;;;;;;;;5037618;28;20041;-78
2022/12/17 19:17:25;;;;;;;146.65;63.95;;;;;;;;;;5021766;28;20033;-79
2022/12/17 19:19:50;;;;;;;92.03;40.25;;;;;;;;;;5034200;28;20025;-79
2022/12/17 19:22:16;;;;;;;104.18;52.53;;;;;;;;;;5034656;28;20037;-79
2022/12/17 19:24:41;;;;;;;100.32;48.38;;;;;;;;;;5017056;28;20167;-79
2022/12/17 19:27:06;;;;;;;118.35;63.53;;;;;;;;;;5034219;28;20079;-79
2022/12/17 19:29:32;;;;;;;78.78;38.65;;;;;;;;;;5016688;28;20048;-81
2022/12/17 19:31:57;;;;;;;75.15;34.30;;;;;;;;;;4999875;28;20033;-80
2022/12/17 19:34:23;;;;;;;77.15;33.70;;;;;;;;;;5033712;28;20030;-79
2022/12/17 19:36:48;;;;;;;69.90;32.03;;;;;;;;;;5034139;28;20040;-80
2022/12/17 19:39:16;;;;;;;68.40;31.25;;;;;;;;;;5034193;28;20033;-79
2022/12/17 19:41:41;;;;;;;72.50;31.52;;;;;;;;;;5016488;28;20061;-79
2022/12/17 19:44:10;;;;;;;70.07;31.02;;;;;;;;;;5034019;28;20492;-79
2022/12/17 19:46:36;;;;;;;75.88;33.53;;;;;;;;;;5016651;28;20026;-79
2022/12/17 19:49:01;;;;;;;68.45;30.75;;;;;;;;;;5034115;28;20374;-79
2022/12/17 19:51:28;;;;;;;63.70;28.48;;;;;;;;;;5020190;28;20037;-81
2022/12/17 19:53:53;;;;;;;71.03;29.17;;;;;;;;;;5004310;28;20029;-78
2022/12/17 19:56:20;;;;;;;62.05;28.33;;;;;;;;;;5020796;28;20037;-80
2022/12/17 19:58:49;;;;;;;63.40;26.88;;;;;;;;;;5022321;28;20116;-79
2022/12/17 20:01:17;;;;;;;60.80;27.02;;;;;;;;;;5007073;28;20033;-79
2022/12/17 20:03:42;;;;;;;65.47;31.50;;;;;;;;;;5039794;28;20037;-80
2022/12/17 20:06:09;;;;;;;59.15;26.83;;;;;;;;;;5040549;28;20473;-78
2022/12/17 20:08:34;;;;;;;58.38;26.52;;;;;;;;;;5022122;28;20110;-79
2022/12/17 20:11:01;;;;;;;53.67;24.17;;;;;;;;;;5005102;28;20481;-79
2022/12/17 20:13:27;;;;;;;53.50;24.50;;;;;;;;;;5020159;28;20343;-78
2022/12/17 20:16:02;;;;;;;50.35;22.77;;;;;;;;;;5020125;28;20032;-80
2022/12/17 20:18:28;;;;;;;52.08;23.15;;;;;;;;;;5019938;28;20029;-79
2022/12/17 20:21:04;;;;;;;52.42;24.17;;;;;;;;;;5052684;28;20040;-79
2022/12/17 20:23:29;;;;;;;51.88;23.15;;;;;;;;;;5037641;28;20057;-80
2022/12/17 20:26:08;;;;;;;55.60;24.63;;;;;;;;;;5037652;28;20374;-78
2022/12/17 20:28:34;;;;;;;50.10;23.77;;;;;;;;;;5052938;28;20043;-79
2022/12/17 20:31:00;;;;;;;51.42;23.30;;;;;;;;;;5037309;28;20025;-80
2022/12/17 20:33:26;;;;;;;47.10;21.13;;;;;;;;;;5035923;28;20060;-81
2022/12/17 20:35:52;;;;;;;48.70;24.02;;;;;;;;;;5003443;28;20418;-78
2022/12/17 20:38:17;;;;;;;47.63;23.05;;;;;;;;;;5019461;28;20021;-79
2022/12/17 20:40:43;;;;;;;48.28;20.83;;;;;;;;;;5037241;28;20072;-81
2022/12/17 20:43:08;;;;;;;48.47;21.17;;;;;;;;;;5019746;28;20444;-80
2022/12/17 20:45:33;;;;;;;49.03;21.83;;;;;;;;;;5019822;28;20096;-78
2022/12/17 20:47:59;;;;;;;43.72;20.63;;;;;;;;;;5019144;28;20061;-78
2022/12/17 20:50:24;;;;;;;47.78;22.08;;;;;;;;;;5019352;28;20033;-78
2022/12/17 20:52:50;;;;;;;49.70;21.63;;;;;;;;;;5036937;28;20113;-79
2022/12/17 20:55:15;;;;;;;50.35;23.08;;;;;;;;;;5019460;28;20469;-78
2022/12/17 20:57:41;;;;;;;48.47;21.90;;;;;;;;;;5037086;28;20044;-78
2022/12/17 21:00:07;;;;;;;51.85;22.98;;;;;;;;;;5036706;28;20347;-80
2022/12/17 21:02:33;;;;;;;48.33;21.83;;;;;;;;;;5017477;28;20127;-80
2022/12/17 21:04:58;;;;;;;46.47;20.67;;;;;;;;;;5036959;28;20470;-80
2022/12/17 21:07:24;;;;;;;45.72;22.75;;;;;;;;;;5036750;28;20037;-78
2022/12/17 21:09:49;;;;;;;47.08;23.10;;;;;;;;;;5019280;28;20443;-78
2022/12/17 21:12:15;;;;;;;54.63;26.35;;;;;;;;;;5036904;28;20079;-79
2022/12/17 21:14:40;;;;;;;63.95;26.90;;;;;;;;;;5019074;28;20036;-79
2022/12/17 21:17:06;;;;;;;74.70;35.78;;;;;;;;;;5002388;28;20040;-79
2022/12/17 21:19:31;;;;;;;63.63;27.33;;;;;;;;;;5018452;28;20036;-80
2022/12/17 21:21:57;;;;;;;44.72;21.90;;;;;;;;;;5036535;28;20053;-79
2022/12/17 21:24:22;;;;;;;44.55;21.42;;;;;;;;;;5036424;28;20448;-78
2022/12/17 21:26:48;;;;;;;46.67;21.25;;;;;;;;;;5018836;28;20378;-79
2022/12/17 21:29:13;;;;;;;45.30;20.20;;;;;;;;;;5002861;28;20087;-79
2022/12/17 21:31:43;;;;;;;37.63;18.42;;;;;;;;;;5018320;28;20036;-78
2022/12/17 21:34:11;;;;;;;36.05;17.63;;;;;;;;;;5018780;28;20036;-78
2022/12/17 21:36:36;;;;;;;39.78;19.95;;;;;;;;;;5002425;28;20045;-77
2022/12/17 21:39:02;;;;;;;35.13;18.15;;;;;;;;;;5018236;28;20405;-78
2022/12/17 21:41:32;;;;;;;30.52;15.50;;;;;;;;;;5018453;28;20041;-79
2022/12/17 21:44:02;;;;;;;31.00;16.15;;;;;;;;;;5035947;28;20036;-78
2022/12/17 21:46:28;;;;;;;36.50;17.42;;;;;;;;;;5035863;28;20029;-78
2022/12/17 21:48:54;;;;;;;38.58;18.88;;;;;;;;;;5034102;28;20044;-79
2022/12/17 21:51:20;;;;;;;41.80;18.65;;;;;;;;;;5002170;28;20037;-77
2022/12/17 21:53:46;;;;;;;44.80;21.30;;;;;;;;;;5034805;28;20030;-78
2022/12/17 21:56:13;;;;;;;45.67;22.08;;;;;;;;;;5001699;28;20374;-79
2022/12/17 21:58:39;;;;;;;50.42;22.50;;;;;;;;;;5018075;28;20037;-79
2022/12/17 22:01:24;;;;;;;50.30;22.30;;;;;;;;;;5018179;28;20065;-77
2022/12/17 22:03:50;;;;;;;50.55;22.98;;;;;;;;;;5018348;28;20029;-77
2022/12/17 22:06:17;;;;;;;49.92;22.45;;;;;;;;;;5035404;28;20076;-78
2022/12/17 22:08:43;;;;;;;49.22;21.30;;;;;;;;;;5001605;28;20030;-79
2022/12/17 22:11:16;;;;;;;51.15;23.40;;;;;;;;;;5001585;28;20060;-80
2022/12/17 22:16:26;;;;;;;54.10;24.30;;;;;;;;;;5006547;28;20113;-79
2022/12/17 22:18:52;;;;;;;57.42;23.85;;;;;;;;;;5017756;28;20116;-80
2022/12/17 22:21:17;;;;;;;66.28;29.35;;;;;;;;;;5001051;28;20037;-80
2022/12/17 22:23:47;;;;;;;53.95;24.85;;;;;;;;;;5017847;28;20039;-79
2022/12/17 22:26:14;;;;;;;54.55;25.08;;;;;;;;;;5001094;28;20033;-79
2022/12/17 22:28:40;;;;;;;57.75;24.73;;;;;;;;;;5017244;28;20366;-80
2022/12/17 22:33:50;;;;;;;55.83;24.65;;;;;;;;;;5019912;28;20112;-78
2022/12/17 22:36:15;;;;;;;63.42;27.20;;;;;;;;;;5033715;28;20052;-80
2022/12/17 22:38:41;;;;;;;64.28;27.52;;;;;;;;;;5017476;28;20030;-80
2022/12/17 22:41:06;;;;;;;61.05;27.25;;;;;;;;;;5034893;28;20039;-78
2022/12/17 22:43:32;;;;;;;59.72;25.35;;;;;;;;;;5034008;28;20120;-79
2022/12/17 22:46:02;;;;;;;55.88;24.52;;;;;;;;;;5017522;28;20438;-79
2022/12/17 22:48:28;;;;;;;58.28;24.55;;;;;;;;;;5033712;28;20033;-80
2022/12/17 22:50:54;;;;;;;59.33;25.20;;;;;;;;;;5035077;28;20426;-78
2022/12/17 22:53:20;;;;;;;65.70;27.55;;;;;;;;;;5034115;28;20087;-79
2022/12/17 22:55:46;;;;;;;60.38;25.88;;;;;;;;;;5034908;28;20072;-79
2022/12/17 22:58:12;;;;;;;58.78;25.90;;;;;;;;;;5016564;28;20065;-79
2022/12/17 23:00:37;;;;;;;58.42;24.70;;;;;;;;;;5017215;28;20124;-79
2022/12/17 23:03:03;;;;;;;59.72;26.98;;;;;;;;;;5034373;28;20040;-79
2022/12/17 23:05:29;;;;;;;57.40;26.80;;;;;;;;;;5016774;28;20037;-79
2022/12/17 23:07:54;;;;;;;62.22;27.80;;;;;;;;;;5017064;28;20034;-79
2022/12/17 23:10:20;;;;;;;55.20;26.00;;;;;;;;;;5016988;28;20116;-80
2022/12/17 23:12:51;;;;;;;54.45;23.50;;;;;;;;;;5016679;28;20033;-79
2022/12/17 23:15:17;;;;;;;57.15;24.30;;;;;;;;;;5033042;28;20031;-78
2022/12/17 23:17:42;;;;;;;59.83;24.75;;;;;;;;;;5034419;28;20067;-78
2022/12/17 23:20:08;;;;;;;61.40;25.23;;;;;;;;;;5033281;28;20036;-79
2022/12/17 23:22:34;;;;;;;57.15;24.90;;;;;;;;;;5016765;28;20025;-79
2022/12/17 23:24:59;;;;;;;62.15;27.15;;;;;;;;;;5033670;28;20438;-78
2022/12/17 23:30:09;;;;;;;56.28;24.30;;;;;;;;;;5033985;28;20183;-78
2022/12/17 23:32:35;;;;;;;60.13;24.25;;;;;;;;;;5034232;28;20033;-79
2022/12/17 23:35:00;;;;;;;62.10;25.42;;;;;;;;;;5033915;28;20040;-78
2022/12/17 23:37:26;;;;;;;57.28;25.13;;;;;;;;;;5016523;28;20026;-79
2022/12/17 23:39:52;;;;;;;62.97;24.38;;;;;;;;;;5016207;28;20029;-80
2022/12/17 23:42:17;;;;;;;57.50;23.30;;;;;;;;;;5032433;28;20159;-79
2022/12/17 23:44:43;;;;;;;58.30;24.60;;;;;;;;;;5033043;28;20029;-81
2022/12/17 23:47:08;;;;;;;62.40;24.20;;;;;;;;;;5033904;28;20036;-78
2022/12/17 23:49:34;;;;;;;69.60;25.60;;;;;;;;;;5032927;28;20038;-80
2022/12/17 23:51:59;;;;;;;69.50;25.88;;;;;;;;;;5034141;28;20366;-80
2022/12/17 23:54:24;;;;;;;63.78;26.70;;;;;;;;;;5032900;28;20454;-77
2022/12/17 23:56:50;;;;;;;59.75;25.65;;;;;;;;;;5015897;28;20366;-79
2022/12/17 23:59:16;;;;;;;54.85;23.83;;;;;;;;;;5032653;28;20025;-79
